Norwegian Spirit — C6TQ6 — position and weather

sailwx.info

Track history (hours):
 
Tides and Currents Weather Stations Pressure Air Temp Water Temp Dewpoint Dewpoint Depression Visibility Wind Speed Wind Dir Waves Ship Positions

Norwegian Spirit

Operator: Norwegian Cruise Line

Last reported at 2017-Aug-18 06:30 UTC. Time now 2017-Aug-18 06:47 UTC.
Position N 38°12' E 015°33'.

Type: Passenger vessel. MMSI: 311746000.

Date/timePositionNaut miles runAvg speedWind from/ knotsBaromVisibWave heightAir tempDewpointWater temp
2017-Aug-18 06:30N 38°12' E 015°33'0 0.0
2017-Aug-18 05:54N 38°12' E 015°33'0 0.0
2017-Aug-18 05:30N 38°12' E 015°33'0 0.0
2017-Aug-18 05:00N 38°12' E 015°34'2 4.5
2017-Aug-18 04:30N 38°12' E 015°36'816.1
2017-Aug-18 04:01N 38°04' E 015°36'816.7
2017-Aug-18 03:31N 37°56' E 015°35'815.4
2017-Aug-18 03:01N 37°48' E 015°36'815.5
2017-Aug-18 02:30N 37°41' E 015°36'815.8
2017-Aug-18 02:00N 37°33' E 015°36'815.8
2017-Aug-18 01:30N 37°25' E 015°37'815.0
2017-Aug-18 01:00N 37°17' E 015°37'1777.6
2017-Aug-18 01:00N 37°18' E 015°36'817.2 360 / 191022.010.8 29.018.827.0
2017-Aug-18 00:30N 37°10' E 015°37'714.8
2017-Aug-18 00:00N 37°02' E 015°38'4262.9
2017-Aug-18 00:00N 37°06' E 015°36'1123.3 360 / 191022.010.8 29.018.827.0
2017-Aug-17 23:31N 36°55' E 015°38'815.2
2017-Aug-17 23:00N 36°48' E 015°34'7766.4
2017-Aug-17 23:00N 36°54' E 015°30'1327.1 360 / 131022.010.8 27.021.326.0
2017-Aug-17 22:31N 36°41' E 015°30'816.1
2017-Aug-17 22:00N 36°34' E 015°25'815.7
2017-Aug-17 21:30N 36°27' E 015°19'815.8
2017-Aug-17 21:00N 36°22' E 015°12'815.8
2017-Aug-17 20:30N 36°16' E 015°05'815.8
2017-Aug-17 20:00N 36°11' E 014°58'816.0
2017-Aug-17 19:30N 36°07' E 014°49'816.2
2017-Aug-17 19:01N 36°02' E 014°42'815.8
2017-Aug-17 18:30N 35°56' E 014°35'4 8.1
2017-Aug-17 17:59N 35°54' E 014°31'0 0.0
2017-Aug-17 17:29N 35°54' E 014°31'0 0.0
2017-Aug-17 16:56N 35°54' E 014°31'0 0.0
2017-Aug-17 15:14N 35°54' E 014°31'0 0.0
2017-Aug-17 14:59N 35°54' E 014°31'0 0.0
2017-Aug-17 14:29N 35°54' E 014°31'0 0.0
2017-Aug-17 13:56N 35°54' E 014°31'0 0.0
2017-Aug-17 13:20N 35°54' E 014°31'0 0.0
2017-Aug-17 12:59N 35°54' E 014°31'0 0.0
2017-Aug-17 12:29N 35°54' E 014°31'0 0.0
2017-Aug-17 11:53N 35°54' E 014°31'0 0.0
2017-Aug-17 11:23N 35°54' E 014°31'0 0.0
2017-Aug-17 10:59N 35°54' E 014°31'0 0.1
2017-Aug-17 09:28N 35°53' E 014°31'2 3.8
2017-Aug-17 09:00N 35°55' E 014°32'713.1
2017-Aug-17 08:30N 36°01' E 014°30'817.2
2017-Aug-17 08:01N 36°07' E 014°22'917.5
2017-Aug-17 07:30N 36°12' E 014°14'917.3
2017-Aug-17 07:00N 36°17' E 014°05'917.3
2017-Aug-17 06:30N 36°22' E 013°56'917.4
2017-Aug-17 06:01N 36°27' E 013°48'917.5
2017-Aug-17 05:31N 36°32' E 013°39'917.7
2017-Aug-17 05:01N 36°38' E 013°30'8448.4
2017-Aug-17 05:00N 36°30' E 013°30'1531.1 280 / 51024.027.0 28.020.926.0
2017-Aug-17 04:31N 36°44' E 013°22'1121.1
2017-Aug-17 04:00N 36°49' E 013°11'1121.5
2017-Aug-17 03:30N 36°55' E 012°59'1121.6
2017-Aug-17 03:00N 37°01' E 012°48'183.2
2017-Aug-17 03:00N 37°00' E 012°48'1123.1 310 / 21024.027.0 28.020.926.0
2017-Aug-17 02:30N 37°07' E 012°37'1121.6
2017-Aug-17 02:00N 37°14' E 012°26'1020.9
2017-Aug-17 01:31N 37°20' E 012°16'1120.8
2017-Aug-17 01:00N 37°27' E 012°06'3390.9
2017-Aug-17 01:00N 37°24' E 012°06'1224.7 060 / 101023.027.0 29.018.829.0
2017-Aug-17 00:30N 37°32' E 011°55'1121.0
2017-Aug-17 00:00N 37°36' E 011°42'921.9 130 / 101024.027.0 29.018.829.0
2017-Aug-16 23:34N 37°43' E 011°35'220.9
2017-Aug-16 23:29N 37°44' E 011°33'1020.9
2017-Aug-16 23:00N 37°50' E 011°23'2272.3
2017-Aug-16 23:00N 37°48' E 011°24'1325.7 050 / 91024.027.0 29.020.426.0
2017-Aug-16 22:30N 37°56' E 011°12'1120.9
2017-Aug-16 21:58N 38°03' E 011°01'1020.9
2017-Aug-16 21:31N 38°09' E 010°51'1223.7
2017-Aug-16 21:00N 38°12' E 010°36'571.0 140 / 51018.010.8 26.021.7
2017-Aug-16 20:55N 38°16' E 010°39'1020.7
2017-Aug-16 20:27N 38°22' E 010°29'2120.5
2017-Aug-16 19:27N 38°35' E 010°08'1120.2
2017-Aug-16 18:54N 38°41' E 009°56'920.5
2017-Aug-16 18:29N 38°46' E 009°47'1020.5
2017-Aug-16 18:00N 38°52' E 009°37'6386.7
2017-Aug-16 18:00N 38°54' E 009°30'510.0 150 / 71024.0
2017-Aug-16 17:30N 38°58' E 009°26'1020.9
2017-Aug-16 17:00N 39°04' E 009°16'816.7
2017-Aug-16 16:30N 39°09' E 009°07'3 6.4
2017-Aug-16 15:59N 39°13' E 009°06'0 0.0
2017-Aug-16 15:29N 39°13' E 009°06'0 0.0
2017-Aug-16 14:59N 39°13' E 009°06'0 0.0
2017-Aug-16 14:29N 39°13' E 009°06'0 0.0
2017-Aug-16 13:59N 39°13' E 009°06'0 0.0
2017-Aug-16 13:29N 39°13' E 009°06'0 0.0
2017-Aug-16 12:59N 39°12' E 009°06'0 0.0
2017-Aug-16 12:29N 39°12' E 009°06'0 0.0
2017-Aug-16 11:59N 39°13' E 009°06'0 0.0
2017-Aug-16 11:29N 39°13' E 009°06'0 0.0
2017-Aug-16 10:59N 39°13' E 009°06'0 0.0
2017-Aug-16 10:29N 39°13' E 009°06'0 0.0
2017-Aug-16 09:59N 39°13' E 009°06'0 0.0
2017-Aug-16 09:29N 39°13' E 009°06'0 0.0
2017-Aug-16 08:59N 39°13' E 009°06'0 0.0
2017-Aug-16 08:29N 39°13' E 009°06'0 0.0
2017-Aug-16 07:59N 39°13' E 009°06'0 0.0
2017-Aug-16 07:29N 39°12' E 009°06'1 1.1
2017-Aug-16 07:00N 39°12' E 009°07'4 7.8
2017-Aug-16 06:30N 39°08' E 009°07'917.3
2017-Aug-16 06:00N 38°60' E 009°08'1020.3
2017-Aug-16 05:30N 38°52' E 008°60'1020.1
2017-Aug-16 05:00N 38°45' E 008°50'1220.1
2017-Aug-16 04:26N 38°43' E 008°35'920.4
2017-Aug-16 04:00N 38°42' E 008°24'1320.6
2017-Aug-16 03:22N 38°41' E 008°07'1231.8
2017-Aug-16 03:00N 38°36' E 007°54'819.1 090 / 171024.010.8 25.022.226.0
2017-Aug-16 02:34N 38°42' E 007°46'120.2
2017-Aug-16 02:30N 38°42' E 007°45'2616.9
2017-Aug-16 01:00N 38°42' E 007°12'2323.4 090 / 211025.010.8 29.020.426.0
2017-Aug-16 00:00N 38°42' E 006°42'2123.1 090 / 211025.010.8 29.020.426.0
2017-Aug-15 23:05N 38°48' E 006°16'112.6
2017-Aug-15 23:00N 38°48' E 006°18'3372.5 090 / 211024.010.8 29.020.426.0
2017-Aug-15 22:59N 38°48' E 006°14'919.8
2017-Aug-15 22:30N 38°49' E 006°02'1019.9
2017-Aug-15 22:01N 38°50' E 005°49'1019.9
2017-Aug-15 21:30N 38°51' E 005°36'1020.1
2017-Aug-15 21:00N 38°52' E 005°23'6393.9
2017-Aug-15 21:00N 38°48' E 005°18'815.5 090 / 201018.0 2.2 26.525.8
2017-Aug-15 20:30N 38°53' E 005°10'1020.5
2017-Aug-15 20:00N 38°54' E 004°57'1020.7
2017-Aug-15 19:30N 38°54' E 004°44'1020.5
2017-Aug-15 19:00N 38°55' E 004°31'1020.5
2017-Aug-15 18:30N 38°56' E 004°18'1020.7
2017-Aug-15 18:00N 38°57' E 004°05'1020.7
2017-Aug-15 17:30N 38°58' E 003°51'1020.7
2017-Aug-15 17:00N 38°59' E 003°38'8506.2
2017-Aug-15 17:00N 38°54' E 003°30'714.5 090 / 201023.010.8 27.0
2017-Aug-15 16:30N 38°60' E 003°25'1020.4
2017-Aug-15 16:01N 39°01' E 003°12'145.3
2017-Aug-15 16:00N 39°00' E 003°12'1021.3 090 / 191023.010.8 27.0
2017-Aug-15 15:30N 39°02' E 002°59'918.9
2017-Aug-15 15:00N 39°07' E 002°49'1020.2
2017-Aug-15 14:30N 39°16' E 002°44'1019.7
2017-Aug-15 14:00N 39°26' E 002°40'815.6
2017-Aug-15 13:30N 39°33' E 002°39'1 1.8
2017-Aug-15 13:00N 39°33' E 002°38'0 0.0
2017-Aug-15 12:30N 39°33' E 002°38'0 0.0
2017-Aug-15 12:00N 39°33' E 002°38'0 0.0
2017-Aug-15 11:30N 39°33' E 002°38'0 0.0
2017-Aug-15 11:00N 39°33' E 002°38'0 0.0
2017-Aug-15 10:30N 39°33' E 002°38'0 0.0
2017-Aug-15 10:00N 39°33' E 002°38'0 0.0
2017-Aug-15 09:30N 39°33' E 002°38'0 0.0
2017-Aug-15 09:00N 39°33' E 002°38'0 0.0
2017-Aug-15 08:30N 39°33' E 002°38'0 0.0
2017-Aug-15 08:00N 39°33' E 002°38'0 0.0
2017-Aug-15 07:30N 39°33' E 002°38'0 0.0
2017-Aug-15 07:00N 39°33' E 002°38'0 0.0
2017-Aug-15 06:30N 39°33' E 002°38'0 0.0
2017-Aug-15 06:00N 39°33' E 002°38'0 0.0
2017-Aug-15 05:30N 39°33' E 002°38'1 2.0
2017-Aug-15 05:00N 39°32' E 002°39'611.6
2017-Aug-15 04:30N 39°27' E 002°35'611.7
2017-Aug-15 04:00N 39°24' E 002°28'611.2
2017-Aug-15 03:30N 39°26' E 002°21'510.9
2017-Aug-15 03:00N 39°29' E 002°16'6629.1
2017-Aug-15 03:00N 39°24' E 002°12'1019.9 050 / 121023.010.8 29.018.827.0
2017-Aug-15 02:30N 39°34' E 002°11'611.8
2017-Aug-15 02:00N 39°40' E 002°11'5336.6
2017-Aug-15 02:00N 39°36' E 002°06'1021.2 180 / 181023.010.8 29.018.827.0
2017-Aug-15 01:30N 39°46' E 002°11'612.0
2017-Aug-15 01:00N 39°52' E 002°11'5522.9
2017-Aug-15 01:00N 39°48' E 002°06'1020.9 180 / 211024.010.8 29.018.827.0
2017-Aug-15 00:30N 39°58' E 002°11'713.8
2017-Aug-15 00:00N 40°04' E 002°11'7478.4
2017-Aug-15 00:00N 40°00' E 002°18'1224.9 100 / 181020.010.8 29.020.426.0
2017-Aug-14 23:30N 40°11' E 002°11'611.4
2017-Aug-14 23:00N 40°17' E 002°10'6534.9
2017-Aug-14 23:00N 40°12' E 002°06'1122.2 100 / 181020.010.8 29.020.426.0
2017-Aug-14 22:30N 40°22' E 002°11'611.9
2017-Aug-14 22:00N 40°28' E 002°11'612.3
2017-Aug-14 21:30N 40°34' E 002°10'712.9
2017-Aug-14 21:00N 40°41' E 002°10'713.3
2017-Aug-14 20:30N 40°48' E 002°10'612.5
2017-Aug-14 20:00N 40°54' E 002°08'2567.3
2017-Aug-14 20:00N 40°54' E 002°06'612.6 100 / 101020.010.8 26.021.7
2017-Aug-14 19:30N 40°60' E 002°08'612.4
2017-Aug-14 19:00N 41°06' E 002°09'2152.6
2017-Aug-14 19:00N 41°06' E 002°06'714.6 100 / 101020.010.8 26.023.2
2017-Aug-14 18:30N 41°12' E 002°10'611.8
2017-Aug-14 18:00N 41°18' E 002°10'3 2.4
2017-Aug-14 16:36N 41°22' E 002°11'0 0.0
2017-Aug-14 16:30N 41°22' E 002°11'0 0.0
2017-Aug-14 15:54N 41°22' E 002°11'0 0.0
2017-Aug-14 15:24N 41°22' E 002°11'0 0.0
2017-Aug-14 13:48N 41°22' E 002°11'0 0.0
2017-Aug-14 13:30N 41°22' E 002°11'0 0.0
2017-Aug-14 13:00N 41°22' E 002°11'0 0.0
2017-Aug-14 12:24N 41°22' E 002°11'0 0.0
2017-Aug-14 11:06N 41°22' E 002°11'0 0.0
2017-Aug-14 10:48N 41°22' E 002°11'0 0.0
2017-Aug-14 10:30N 41°22' E 002°11'0 0.0
2017-Aug-14 09:48N 41°22' E 002°11'0 0.0
2017-Aug-14 09:18N 41°22' E 002°11'0 0.0
2017-Aug-14 08:54N 41°22' E 002°11'0 0.0
2017-Aug-14 08:24N 41°22' E 002°11'0 0.0
2017-Aug-14 08:00N 41°22' E 002°11'0 0.0
2017-Aug-14 07:30N 41°22' E 002°11'0 0.0
2017-Aug-14 07:00N 41°22' E 002°11'0 0.0
2017-Aug-14 06:30N 41°22' E 002°11'0 0.0
2017-Aug-14 05:48N 41°22' E 002°11'0 0.0
2017-Aug-14 05:24N 41°22' E 002°11'0 0.0
2017-Aug-14 04:54N 41°22' E 002°11'0 0.4
2017-Aug-14 04:30N 41°22' E 002°11'3 6.3
2017-Aug-14 03:58N 41°18' E 002°11'611.7
2017-Aug-14 03:30N 41°18' E 002°18'816.9
2017-Aug-14 03:00N 41°23' E 002°27'916.9
2017-Aug-14 02:30N 41°27' E 002°37'816.3
2017-Aug-14 02:00N 41°32' E 002°46'816.1
2017-Aug-14 01:30N 41°36' E 002°55'816.3
2017-Aug-14 01:00N 41°41' E 003°05'61205.2
2017-Aug-14 01:00N 41°36' E 003°00'1327.4 200 / 131024.027.0 29.020.426.0
2017-Aug-14 00:30N 41°45' E 003°13'815.6
2017-Aug-14 00:00N 41°49' E 003°22'8700.3
2017-Aug-14 00:00N 41°42' E 003°18'1429.3 190 / 41024.010.8 28.020.926.0
2017-Aug-13 23:30N 41°53' E 003°30'816.2
2017-Aug-13 23:00N 41°59' E 003°38'8521.1
2017-Aug-13 23:00N 41°54' E 003°30'1734.7 200 / 131021.027.0 29.020.426.0
2017-Aug-13 22:30N 42°05' E 003°47'917.7
2017-Aug-13 22:00N 42°12' E 003°55'917.3
2017-Aug-13 21:30N 42°18' E 004°03'917.5
2017-Aug-13 21:00N 42°25' E 004°11'151016.2
2017-Aug-13 21:00N 42°36' E 004°24'613.0 200 / 101018.010.8 24.019.618.0
2017-Aug-13 20:30N 42°31' E 004°19'917.6
2017-Aug-13 20:00N 42°37' E 004°27'15946.5
2017-Aug-13 20:00N 42°48' E 004°42'613.2 200 / 101018.010.8 24.019.6
2017-Aug-13 19:30N 42°44' E 004°36'917.2
2017-Aug-13 19:01N 42°50' E 004°44'917.0
2017-Aug-13 18:30N 42°56' E 004°52'917.1
2017-Aug-13 18:00N 43°02' E 004°59'917.4
2017-Aug-13 17:30N 43°09' E 005°07'817.0
2017-Aug-13 17:01N 43°17' E 005°11'713.0
2017-Aug-13 16:30N 43°21' E 005°18'2 3.1
2017-Aug-13 16:00N 43°21' E 005°20'0 0.0
2017-Aug-13 15:30N 43°21' E 005°20'0 0.0
2017-Aug-13 14:57N 43°21' E 005°20'0 0.0
2017-Aug-13 14:30N 43°21' E 005°20'0 0.0
2017-Aug-13 14:00N 43°21' E 005°20'0 0.0
2017-Aug-13 13:30N 43°21' E 005°20'0 0.0
2017-Aug-13 13:00N 43°21' E 005°20'0 0.0
2017-Aug-13 12:27N 43°21' E 005°20'0 0.0
2017-Aug-13 12:00N 43°21' E 005°20'0 0.0
2017-Aug-13 11:30N 43°21' E 005°20'0 0.0
2017-Aug-13 11:00N 43°21' E 005°20'0 0.0
2017-Aug-13 10:30N 43°21' E 005°20'0 0.0
2017-Aug-13 10:00N 43°21' E 005°20'0 0.0
2017-Aug-13 09:30N 43°21' E 005°20'0 0.0
2017-Aug-13 09:00N 43°21' E 005°20'0 0.0
2017-Aug-13 08:30N 43°21' E 005°20'0 0.0
2017-Aug-13 08:00N 43°21' E 005°20'0 0.0
2017-Aug-13 07:30N 43°21' E 005°20'0 0.0
2017-Aug-13 07:00N 43°21' E 005°20'0 0.0
2017-Aug-13 06:27N 43°21' E 005°20'0 0.0
2017-Aug-13 06:00N 43°21' E 005°20'0 0.0
2017-Aug-13 05:30N 43°21' E 005°20'1 1.3
2017-Aug-13 05:00N 43°21' E 005°19'5 9.4
2017-Aug-13 04:30N 43°18' E 005°14'611.5
2017-Aug-13 04:00N 43°13' E 005°11'8494.6
2017-Aug-13 04:00N 43°06' E 005°06'612.0 340 / 191022.010.8 19.2 18.0
2017-Aug-13 03:30N 43°07' E 005°14'613.1
2017-Aug-13 03:00N 43°01' E 005°18'5282.1
2017-Aug-13 03:00N 43°00' E 005°12'1019.9 330 / 241022.010.8 19.2 18.0
2017-Aug-13 02:30N 42°56' E 005°24'1112.1
2017-Aug-13 01:33N 42°52' E 005°39'111.7
2017-Aug-13 01:30N 42°52' E 005°39'611.6
2017-Aug-13 01:00N 42°50' E 005°47'611.3
2017-Aug-13 00:30N 42°48' E 005°54'916.6
2017-Aug-13 00:00N 42°48' E 006°06'2 6.2 270 / 191020.010.8 29.020.427.0
2017-Aug-12 23:41N 42°46' E 006°07'311.5
2017-Aug-12 23:25N 42°46' E 006°11'511.5
2017-Aug-12 23:00N 42°46' E 006°18'611.5
2017-Aug-12 22:30N 42°47' E 006°26'611.0
2017-Aug-12 21:56N 42°49' E 006°34'711.4
2017-Aug-12 21:21N 42°55' E 006°38'411.2
2017-Aug-12 21:00N 42°58' E 006°41'611.3
2017-Aug-12 20:30N 43°03' E 006°45'611.4
2017-Aug-12 19:59N 43°08' E 006°48'511.4
2017-Aug-12 19:30N 43°13' E 006°51'611.7
2017-Aug-12 19:00N 43°18' E 006°55'611.6
2017-Aug-12 18:30N 43°24' E 006°57'612.2
2017-Aug-12 18:00N 43°30' E 006°59'3 5.0
2017-Aug-12 17:28N 43°32' E 007°01'0 0.1
2017-Aug-12 16:58N 43°32' E 007°01'0 0.0
2017-Aug-12 16:28N 43°32' E 007°01'0 0.0
2017-Aug-12 15:58N 43°32' E 007°01'0 0.0
2017-Aug-12 15:28N 43°32' E 007°01'0 0.0
2017-Aug-12 14:52N 43°32' E 007°01'0 0.0
2017-Aug-12 14:25N 43°32' E 007°01'0 0.0
2017-Aug-12 13:58N 43°32' E 007°01'0 0.0
2017-Aug-12 13:28N 43°32' E 007°01'0 0.1
2017-Aug-12 12:58N 43°32' E 007°01'0 0.0
2017-Aug-12 12:28N 43°32' E 007°01'0 0.1
2017-Aug-12 11:58N 43°32' E 007°01'0 0.0
2017-Aug-12 11:28N 43°32' E 007°01'0 0.0
2017-Aug-12 10:58N 43°32' E 007°01'0 0.0
2017-Aug-12 10:28N 43°32' E 007°01'0 0.0
2017-Aug-12 09:58N 43°32' E 007°01'0 0.0
2017-Aug-12 09:28N 43°32' E 007°01'0 0.0
2017-Aug-12 08:55N 43°32' E 007°01'0 0.0
2017-Aug-12 08:28N 43°32' E 007°01'0 0.1
2017-Aug-12 07:58N 43°32' E 007°01'0 0.0
2017-Aug-12 07:28N 43°32' E 007°01'0 0.0
2017-Aug-12 06:58N 43°32' E 007°01'0 0.0
2017-Aug-12 06:28N 43°32' E 007°01'0 0.0
2017-Aug-12 05:58N 43°32' E 007°01'0 0.0
2017-Aug-12 05:28N 43°32' E 007°01'0 0.0
2017-Aug-12 04:58N 43°32' E 007°01'0 0.1
2017-Aug-12 04:30N 43°32' E 007°01'1 1.8
2017-Aug-12 04:00N 43°31' E 007°00'611.8
2017-Aug-12 03:31N 43°29' E 007°08'714.7
2017-Aug-12 03:00N 43°28' E 007°18'713.4
2017-Aug-12 02:29N 43°28' E 007°27'1913.5
2017-Aug-12 01:04N 43°32' E 007°53'460.3
2017-Aug-12 01:00N 43°30' E 007°48'2517.4 010 / 121020.027.0 28.020.927.0
2017-Aug-11 23:32N 43°38' E 008°21'113.8
2017-Aug-11 23:26N 43°39' E 008°23'614.2
2017-Aug-11 23:00N 43°41' E 008°31'714.3
2017-Aug-11 22:30N 43°42' E 008°40'714.1
2017-Aug-11 22:00N 43°44' E 008°50'714.1
2017-Aug-11 21:30N 43°46' E 008°59'713.8
2017-Aug-11 21:00N 43°48' E 009°08'713.4
2017-Aug-11 20:30N 43°51' E 009°17'713.1
2017-Aug-11 20:00N 43°53' E 009°26'5346.0
2017-Aug-11 20:00N 43°48' E 009°24'1121.9 220 / 151013.0 5.4 25.022.9
2017-Aug-11 19:30N 43°55' E 009°35'714.2
2017-Aug-11 19:00N 43°58' E 009°44'4791.3
2017-Aug-11 19:00N 43°54' E 009°42'1019.8 220 / 151013.0 5.4 25.022.9
2017-Aug-11 18:30N 44°00' E 009°52'611.1
2017-Aug-11 18:00N 44°06' E 009°50'0 0.9
2017-Aug-11 17:28N 44°06' E 009°50'0 0.0
2017-Aug-11 16:58N 44°06' E 009°50'0 0.0
2017-Aug-11 16:28N 44°06' E 009°50'0 0.0
2017-Aug-11 15:58N 44°06' E 009°50'0 0.0
2017-Aug-11 15:28N 44°06' E 009°50'0 0.0
2017-Aug-11 14:58N 44°06' E 009°50'0 0.0
2017-Aug-11 14:28N 44°06' E 009°50'0 0.0
2017-Aug-11 13:28N 44°06' E 009°50'0 0.0
2017-Aug-11 12:58N 44°06' E 009°50'0 0.0
2017-Aug-11 12:28N 44°06' E 009°50'0 0.0
2017-Aug-11 11:58N 44°06' E 009°50'0 0.0
2017-Aug-11 11:28N 44°06' E 009°50'0 0.0
2017-Aug-11 10:58N 44°06' E 009°50'0 0.0
2017-Aug-11 10:28N 44°06' E 009°50'0 0.0
2017-Aug-11 09:58N 44°06' E 009°50'0 0.0
2017-Aug-11 09:28N 44°06' E 009°50'0 0.0
2017-Aug-11 08:58N 44°06' E 009°50'0 0.0
2017-Aug-11 08:28N 44°06' E 009°50'0 0.0
2017-Aug-11 07:58N 44°06' E 009°50'0 0.0
2017-Aug-11 07:28N 44°06' E 009°50'0 0.0
2017-Aug-11 06:58N 44°06' E 009°50'0 0.0
2017-Aug-11 06:28N 44°06' E 009°50'0 0.0
2017-Aug-11 05:58N 44°06' E 009°50'0 0.0
2017-Aug-11 05:29N 44°06' E 009°50'0 0.0
2017-Aug-11 04:58N 44°06' E 009°50'0 0.1
2017-Aug-11 04:30N 44°06' E 009°50'3 6.5
2017-Aug-11 04:00N 44°03' E 009°52'612.3
2017-Aug-11 03:30N 43°58' E 009°56'714.4
2017-Aug-11 03:01N 43°51' E 009°52'714.2
2017-Aug-11 02:31N 43°45' E 009°48'713.5
2017-Aug-11 02:00N 43°39' E 009°45'714.2
2017-Aug-11 01:30N 43°32' E 009°44'815.0
2017-Aug-11 01:01N 43°24' E 009°44'178.8
2017-Aug-11 01:00N 43°24' E 009°42'816.2 260 / 291017.027.0 29.020.427.0
2017-Aug-11 00:30N 43°18' E 009°49'714.7
2017-Aug-11 00:00N 43°12' E 009°54'714.9
2017-Aug-10 23:30N 43°05' E 009°59'714.7
2017-Aug-10 23:00N 42°58' E 010°00'2136.4
2017-Aug-10 23:00N 43°00' E 010°00'919.5 270 / 441018.010.8 30.019.926.0
2017-Aug-10 22:31N 42°51' E 010°01'814.9
2017-Aug-10 22:00N 42°43' E 010°04'1216.5
2017-Aug-10 21:15N 42°35' E 010°16'521.6
2017-Aug-10 21:00N 42°30' E 010°12'832.9
2017-Aug-10 20:44N 42°28' E 010°23'2635.1
2017-Aug-10 20:00N 42°06' E 010°42'47 2.5 030 / 261013.0 5.4 27.025.6
2017-Aug-10 01:00N 41°42' E 011°36'1918.6 180 / 141021.0 5.4 27.019.727.0
2017-Aug-10 00:00N 41°24' E 011°42'1 3.8 120 / 231022.0 5.4 29.020.426.0
2017-Aug-09 23:42N 41°24' E 011°44'3613.3
2017-Aug-09 21:00N 40°48' E 011°42'1818.0 180 / 161016.0 5.4 28.027.329.0
2017-Aug-09 20:00N 40°30' E 011°42'8 8.2 180 / 161016.0 5.4 28.027.329.0
2017-Aug-09 19:02N 40°23' E 011°47'112.9
2017-Aug-09 18:57N 40°22' E 011°47'712.5
2017-Aug-09 18:26N 40°16' E 011°47'2215.0
2017-Aug-09 17:00N 39°54' E 011°48'3015.0 160 / 71022.0 5.4 29.0 29.0
2017-Aug-09 15:00N 39°24' E 011°48'6 6.0 190 / 111026.010.8 28.0
2017-Aug-09 14:00N 39°18' E 011°48'615.4 180 / 161022.010.8 30.019.927.0
2017-Aug-09 13:36N 39°12' E 011°51'711.2
2017-Aug-09 13:00N 39°06' E 011°54'1918.6 180 / 161022.010.8 30.019.927.0
2017-Aug-09 12:00N 38°48' E 011°48'1212.0 180 / 171023.010.8 30.021.527.0
2017-Aug-09 11:00N 38°36' E 011°48'1312.9 190 / 131023.010.8 30.019.926.0
2017-Aug-09 10:00N 38°24' E 011°54'1011.5 170 / 201014.0 2.2 31.031.029.0
2017-Aug-09 09:05N 38°14' E 011°55'113.5
2017-Aug-09 09:00N 38°13' E 011°55'191191.5
2017-Aug-09 09:00N 37°54' E 011°54'1224.4 170 / 161014.0 2.2 31.031.0
2017-Aug-09 08:30N 38°06' E 011°55'913.1
2017-Aug-09 07:48N 37°57' E 011°56'412.7
2017-Aug-09 07:30N 37°53' E 011°58'612.3
2017-Aug-09 07:00N 37°49' E 012°04'612.9
2017-Aug-09 06:30N 37°45' E 012°10'713.4
2017-Aug-09 06:00N 37°40' E 012°16'612.9
2017-Aug-09 05:30N 37°36' E 012°22'613.0
2017-Aug-09 05:00N 37°32' E 012°29'713.1
2017-Aug-09 04:30N 37°28' E 012°35'713.1
2017-Aug-09 04:00N 37°24' E 012°41'6435.4
2017-Aug-09 04:00N 37°18' E 012°42'5 9.3 130 / 121022.0 5.4 26.9 27.0
2017-Aug-09 03:30N 37°19' E 012°48'613.1
2017-Aug-09 03:00N 37°15' E 012°53'3277.3
2017-Aug-09 03:00N 37°12' E 012°54'4 9.2 1022.010.8 27.0 28.0
2017-Aug-09 02:30N 37°10' E 012°59'612.9
2017-Aug-09 02:00N 37°06' E 013°05'4250.5
2017-Aug-09 02:00N 37°06' E 013°00'1019.9 120 / 51022.0 2.2 29.020.427.0
2017-Aug-09 01:30N 37°01' E 013°11'612.7
2017-Aug-09 01:00N 36°57' E 013°16'5364.7
2017-Aug-09 01:00N 37°00' E 013°12'1122.8 010 / 1101023.010.8 29.022.027.0
2017-Aug-09 00:30N 36°52' E 013°22'713.0
2017-Aug-09 00:00N 36°48' E 013°28'2128.6
2017-Aug-09 00:00N 36°48' E 013°30'511.3 010 / 1101023.010.8 29.022.027.0
2017-Aug-08 23:30N 36°43' E 013°34'712.9
2017-Aug-08 23:00N 36°39' E 013°39'4398.4
2017-Aug-08 23:00N 36°36' E 013°36'815.6 010 / 1101023.010.8 29.022.027.0
2017-Aug-08 22:30N 36°34' E 013°45'612.8
2017-Aug-08 22:00N 36°30' E 013°51'612.9
2017-Aug-08 21:30N 36°26' E 013°57'713.0
2017-Aug-08 21:00N 36°21' E 014°03'612.9
2017-Aug-08 20:30N 36°17' E 014°09'612.5
2017-Aug-08 20:00N 36°12' E 014°14'612.5
2017-Aug-08 19:30N 36°08' E 014°19'612.8
2017-Aug-08 19:00N 36°03' E 014°24'612.8
2017-Aug-08 18:30N 35°58' E 014°30'4 8.9
2017-Aug-08 18:00N 35°54' E 014°31'1 1.0
2017-Aug-08 17:28N 35°53' E 014°31'0 0.0
2017-Aug-08 16:55N 35°53' E 014°31'0 0.0
2017-Aug-08 16:28N 35°53' E 014°31'0 0.0
2017-Aug-08 15:58N 35°53' E 014°31'0 0.0
2017-Aug-08 15:28N 35°53' E 014°31'0 0.0
2017-Aug-08 14:58N 35°53' E 014°31'0 0.0
2017-Aug-08 14:25N 35°53' E 014°31'0 0.0
2017-Aug-08 13:58N 35°53' E 014°31'0 0.0
2017-Aug-08 13:25N 35°53' E 014°31'0 0.0
2017-Aug-08 12:28N 35°53' E 014°31'0 0.0
2017-Aug-08 11:52N 35°53' E 014°31'0 0.0
2017-Aug-08 11:19N 35°53' E 014°31'0 0.0
2017-Aug-08 10:58N 35°53' E 014°31'0 0.3
2017-Aug-08 10:30N 35°53' E 014°31'3 6.8
2017-Aug-08 10:00N 35°55' E 014°34'1020.4
2017-Aug-08 09:30N 35°60' E 014°45'1121.3
2017-Aug-08 09:00N 36°03' E 014°58'2821.5
2017-Aug-08 07:41N 36°11' E 015°31'  
Track history (hours):
 
Tides and Currents Weather Stations Pressure Air Temp Water Temp Dewpoint Dewpoint Depression Visibility Wind Speed Wind Dir Waves Ship Positions

Norwegian Spirit

Operator: Norwegian Cruise Line

Last reported at 2017-Aug-18 06:30 UTC. Time now 2017-Aug-18 06:47 UTC.
Position N 38°12' E 015°33'.

Type: Passenger vessel. MMSI: 311746000.

Date/timePositionNaut miles runAvg speedWind from/ knotsBaromVisibWave heightAir tempDewpointWater temp
2017-Aug-18 06:30N 38°12' E 015°33'0 0.0
2017-Aug-18 05:54N 38°12' E 015°33'0 0.0
2017-Aug-18 05:30N 38°12' E 015°33'0 0.0
2017-Aug-18 05:00N 38°12' E 015°34'2 4.5
2017-Aug-18 04:30N 38°12' E 015°36'816.1
2017-Aug-18 04:01N 38°04' E 015°36'816.7
2017-Aug-18 03:31N 37°56' E 015°35'815.4
2017-Aug-18 03:01N 37°48' E 015°36'815.5
2017-Aug-18 02:30N 37°41' E 015°36'815.8
2017-Aug-18 02:00N 37°33' E 015°36'815.8
2017-Aug-18 01:30N 37°25' E 015°37'815.0
2017-Aug-18 01:00N 37°17' E 015°37'1777.6
2017-Aug-18 01:00N 37°18' E 015°36'817.2 360 / 191022.010.8 29.018.827.0
2017-Aug-18 00:30N 37°10' E 015°37'714.8
2017-Aug-18 00:00N 37°02' E 015°38'4262.9
2017-Aug-18 00:00N 37°06' E 015°36'1123.3 360 / 191022.010.8 29.018.827.0
2017-Aug-17 23:31N 36°55' E 015°38'815.2
2017-Aug-17 23:00N 36°48' E 015°34'7766.4
2017-Aug-17 23:00N 36°54' E 015°30'1327.1 360 / 131022.010.8 27.021.326.0
2017-Aug-17 22:31N 36°41' E 015°30'816.1
2017-Aug-17 22:00N 36°34' E 015°25'815.7
2017-Aug-17 21:30N 36°27' E 015°19'815.8
2017-Aug-17 21:00N 36°22' E 015°12'815.8
2017-Aug-17 20:30N 36°16' E 015°05'815.8
2017-Aug-17 20:00N 36°11' E 014°58'816.0
2017-Aug-17 19:30N 36°07' E 014°49'816.2
2017-Aug-17 19:01N 36°02' E 014°42'815.8
2017-Aug-17 18:30N 35°56' E 014°35'4 8.1
2017-Aug-17 17:59N 35°54' E 014°31'0 0.0
2017-Aug-17 17:29N 35°54' E 014°31'0 0.0
2017-Aug-17 16:56N 35°54' E 014°31'0 0.0
2017-Aug-17 15:14N 35°54' E 014°31'0 0.0
2017-Aug-17 14:59N 35°54' E 014°31'0 0.0
2017-Aug-17 14:29N 35°54' E 014°31'0 0.0
2017-Aug-17 13:56N 35°54' E 014°31'0 0.0
2017-Aug-17 13:20N 35°54' E 014°31'0 0.0
2017-Aug-17 12:59N 35°54' E 014°31'0 0.0
2017-Aug-17 12:29N 35°54' E 014°31'0 0.0
2017-Aug-17 11:53N 35°54' E 014°31'0 0.0
2017-Aug-17 11:23N 35°54' E 014°31'0 0.0
2017-Aug-17 10:59N 35°54' E 014°31'0 0.1
2017-Aug-17 09:28N 35°53' E 014°31'2 3.8
2017-Aug-17 09:00N 35°55' E 014°32'713.1
2017-Aug-17 08:30N 36°01' E 014°30'817.2
2017-Aug-17 08:01N 36°07' E 014°22'917.5
2017-Aug-17 07:30N 36°12' E 014°14'917.3
2017-Aug-17 07:00N 36°17' E 014°05'917.3
2017-Aug-17 06:30N 36°22' E 013°56'917.4
2017-Aug-17 06:01N 36°27' E 013°48'917.5
2017-Aug-17 05:31N 36°32' E 013°39'917.7
2017-Aug-17 05:01N 36°38' E 013°30'8448.4
2017-Aug-17 05:00N 36°30' E 013°30'1531.1 280 / 51024.027.0 28.020.926.0
2017-Aug-17 04:31N 36°44' E 013°22'1121.1
2017-Aug-17 04:00N 36°49' E 013°11'1121.5
2017-Aug-17 03:30N 36°55' E 012°59'1121.6
2017-Aug-17 03:00N 37°01' E 012°48'183.2
2017-Aug-17 03:00N 37°00' E 012°48'1123.1 310 / 21024.027.0 28.020.926.0
2017-Aug-17 02:30N 37°07' E 012°37'1121.6
2017-Aug-17 02:00N 37°14' E 012°26'1020.9
2017-Aug-17 01:31N 37°20' E 012°16'1120.8
2017-Aug-17 01:00N 37°27' E 012°06'3390.9
2017-Aug-17 01:00N 37°24' E 012°06'1224.7 060 / 101023.027.0 29.018.829.0
2017-Aug-17 00:30N 37°32' E 011°55'1121.0
2017-Aug-17 00:00N 37°36' E 011°42'921.9 130 / 101024.027.0 29.018.829.0
2017-Aug-16 23:34N 37°43' E 011°35'220.9
2017-Aug-16 23:29N 37°44' E 011°33'1020.9
2017-Aug-16 23:00N 37°50' E 011°23'2272.3
2017-Aug-16 23:00N 37°48' E 011°24'1325.7 050 / 91024.027.0 29.020.426.0
2017-Aug-16 22:30N 37°56' E 011°12'1120.9
2017-Aug-16 21:58N 38°03' E 011°01'1020.9
2017-Aug-16 21:31N 38°09' E 010°51'1223.7
2017-Aug-16 21:00N 38°12' E 010°36'571.0 140 / 51018.010.8 26.021.7
2017-Aug-16 20:55N 38°16' E 010°39'1020.7
2017-Aug-16 20:27N 38°22' E 010°29'2120.5
2017-Aug-16 19:27N 38°35' E 010°08'1120.2
2017-Aug-16 18:54N 38°41' E 009°56'920.5
2017-Aug-16 18:29N 38°46' E 009°47'1020.5
2017-Aug-16 18:00N 38°52' E 009°37'6386.7
2017-Aug-16 18:00N 38°54' E 009°30'510.0 150 / 71024.0
2017-Aug-16 17:30N 38°58' E 009°26'1020.9
2017-Aug-16 17:00N 39°04' E 009°16'816.7
2017-Aug-16 16:30N 39°09' E 009°07'3 6.4
2017-Aug-16 15:59N 39°13' E 009°06'0 0.0
2017-Aug-16 15:29N 39°13' E 009°06'0 0.0
2017-Aug-16 14:59N 39°13' E 009°06'0 0.0
2017-Aug-16 14:29N 39°13' E 009°06'0 0.0
2017-Aug-16 13:59N 39°13' E 009°06'0 0.0
2017-Aug-16 13:29N 39°13' E 009°06'0 0.0
2017-Aug-16 12:59N 39°12' E 009°06'0 0.0
2017-Aug-16 12:29N 39°12' E 009°06'0 0.0
2017-Aug-16 11:59N 39°13' E 009°06'0 0.0
2017-Aug-16 11:29N 39°13' E 009°06'0 0.0
2017-Aug-16 10:59N 39°13' E 009°06'0 0.0
2017-Aug-16 10:29N 39°13' E 009°06'0 0.0
2017-Aug-16 09:59N 39°13' E 009°06'0 0.0
2017-Aug-16 09:29N 39°13' E 009°06'0 0.0
2017-Aug-16 08:59N 39°13' E 009°06'0 0.0
2017-Aug-16 08:29N 39°13' E 009°06'0 0.0
2017-Aug-16 07:59N 39°13' E 009°06'0 0.0
2017-Aug-16 07:29N 39°12' E 009°06'1 1.1
2017-Aug-16 07:00N 39°12' E 009°07'4 7.8
2017-Aug-16 06:30N 39°08' E 009°07'917.3
2017-Aug-16 06:00N 38°60' E 009°08'1020.3
2017-Aug-16 05:30N 38°52' E 008°60'1020.1
2017-Aug-16 05:00N 38°45' E 008°50'1220.1
2017-Aug-16 04:26N 38°43' E 008°35'920.4
2017-Aug-16 04:00N 38°42' E 008°24'1320.6
2017-Aug-16 03:22N 38°41' E 008°07'1231.8
2017-Aug-16 03:00N 38°36' E 007°54'819.1 090 / 171024.010.8 25.022.226.0
2017-Aug-16 02:34N 38°42' E 007°46'120.2
2017-Aug-16 02:30N 38°42' E 007°45'2616.9
2017-Aug-16 01:00N 38°42' E 007°12'2323.4 090 / 211025.010.8 29.020.426.0
2017-Aug-16 00:00N 38°42' E 006°42'2123.1 090 / 211025.010.8 29.020.426.0
2017-Aug-15 23:05N 38°48' E 006°16'112.6
2017-Aug-15 23:00N 38°48' E 006°18'3372.5 090 / 211024.010.8 29.020.426.0
2017-Aug-15 22:59N 38°48' E 006°14'919.8
2017-Aug-15 22:30N 38°49' E 006°02'1019.9
2017-Aug-15 22:01N 38°50' E 005°49'1019.9
2017-Aug-15 21:30N 38°51' E 005°36'1020.1
2017-Aug-15 21:00N 38°52' E 005°23'6393.9
2017-Aug-15 21:00N 38°48' E 005°18'815.5 090 / 201018.0 2.2 26.525.8
2017-Aug-15 20:30N 38°53' E 005°10'1020.5
2017-Aug-15 20:00N 38°54' E 004°57'1020.7
2017-Aug-15 19:30N 38°54' E 004°44'1020.5
2017-Aug-15 19:00N 38°55' E 004°31'1020.5
2017-Aug-15 18:30N 38°56' E 004°18'1020.7
2017-Aug-15 18:00N 38°57' E 004°05'1020.7
2017-Aug-15 17:30N 38°58' E 003°51'1020.7
2017-Aug-15 17:00N 38°59' E 003°38'8506.2
2017-Aug-15 17:00N 38°54' E 003°30'714.5 090 / 201023.010.8 27.0
2017-Aug-15 16:30N 38°60' E 003°25'1020.4
2017-Aug-15 16:01N 39°01' E 003°12'145.3
2017-Aug-15 16:00N 39°00' E 003°12'1021.3 090 / 191023.010.8 27.0
2017-Aug-15 15:30N 39°02' E 002°59'918.9
2017-Aug-15 15:00N 39°07' E 002°49'1020.2
2017-Aug-15 14:30N 39°16' E 002°44'1019.7
2017-Aug-15 14:00N 39°26' E 002°40'815.6
2017-Aug-15 13:30N 39°33' E 002°39'1 1.8
2017-Aug-15 13:00N 39°33' E 002°38'0 0.0
2017-Aug-15 12:30N 39°33' E 002°38'0 0.0
2017-Aug-15 12:00N 39°33' E 002°38'0 0.0
2017-Aug-15 11:30N 39°33' E 002°38'0 0.0
2017-Aug-15 11:00N 39°33' E 002°38'0 0.0
2017-Aug-15 10:30N 39°33' E 002°38'0 0.0
2017-Aug-15 10:00N 39°33' E 002°38'0 0.0
2017-Aug-15 09:30N 39°33' E 002°38'0 0.0
2017-Aug-15 09:00N 39°33' E 002°38'0 0.0
2017-Aug-15 08:30N 39°33' E 002°38'0 0.0
2017-Aug-15 08:00N 39°33' E 002°38'0 0.0
2017-Aug-15 07:30N 39°33' E 002°38'0 0.0
2017-Aug-15 07:00N 39°33' E 002°38'0 0.0
2017-Aug-15 06:30N 39°33' E 002°38'0 0.0
2017-Aug-15 06:00N 39°33' E 002°38'0 0.0
2017-Aug-15 05:30N 39°33' E 002°38'1 2.0
2017-Aug-15 05:00N 39°32' E 002°39'611.6
2017-Aug-15 04:30N 39°27' E 002°35'611.7
2017-Aug-15 04:00N 39°24' E 002°28'611.2
2017-Aug-15 03:30N 39°26' E 002°21'510.9
2017-Aug-15 03:00N 39°29' E 002°16'6629.1
2017-Aug-15 03:00N 39°24' E 002°12'1019.9 050 / 121023.010.8 29.018.827.0
2017-Aug-15 02:30N 39°34' E 002°11'611.8
2017-Aug-15 02:00N 39°40' E 002°11'5336.6
2017-Aug-15 02:00N 39°36' E 002°06'1021.2 180 / 181023.010.8 29.018.827.0
2017-Aug-15 01:30N 39°46' E 002°11'612.0
2017-Aug-15 01:00N 39°52' E 002°11'5522.9
2017-Aug-15 01:00N 39°48' E 002°06'1020.9 180 / 211024.010.8 29.018.827.0
2017-Aug-15 00:30N 39°58' E 002°11'713.8
2017-Aug-15 00:00N 40°04' E 002°11'7478.4
2017-Aug-15 00:00N 40°00' E 002°18'1224.9 100 / 181020.010.8 29.020.426.0
2017-Aug-14 23:30N 40°11' E 002°11'611.4
2017-Aug-14 23:00N 40°17' E 002°10'6534.9
2017-Aug-14 23:00N 40°12' E 002°06'1122.2 100 / 181020.010.8 29.020.426.0
2017-Aug-14 22:30N 40°22' E 002°11'611.9
2017-Aug-14 22:00N 40°28' E 002°11'612.3
2017-Aug-14 21:30N 40°34' E 002°10'712.9
2017-Aug-14 21:00N 40°41' E 002°10'713.3
2017-Aug-14 20:30N 40°48' E 002°10'612.5
2017-Aug-14 20:00N 40°54' E 002°08'2567.3
2017-Aug-14 20:00N 40°54' E 002°06'612.6 100 / 101020.010.8 26.021.7
2017-Aug-14 19:30N 40°60' E 002°08'612.4
2017-Aug-14 19:00N 41°06' E 002°09'2152.6
2017-Aug-14 19:00N 41°06' E 002°06'714.6 100 / 101020.010.8 26.023.2
2017-Aug-14 18:30N 41°12' E 002°10'611.8
2017-Aug-14 18:00N 41°18' E 002°10'3 2.4
2017-Aug-14 16:36N 41°22' E 002°11'0 0.0
2017-Aug-14 16:30N 41°22' E 002°11'0 0.0
2017-Aug-14 15:54N 41°22' E 002°11'0 0.0
2017-Aug-14 15:24N 41°22' E 002°11'0 0.0
2017-Aug-14 13:48N 41°22' E 002°11'0 0.0
2017-Aug-14 13:30N 41°22' E 002°11'0 0.0
2017-Aug-14 13:00N 41°22' E 002°11'0 0.0
2017-Aug-14 12:24N 41°22' E 002°11'0 0.0
2017-Aug-14 11:06N 41°22' E 002°11'0 0.0
2017-Aug-14 10:48N 41°22' E 002°11'0 0.0
2017-Aug-14 10:30N 41°22' E 002°11'0 0.0
2017-Aug-14 09:48N 41°22' E 002°11'0 0.0
2017-Aug-14 09:18N 41°22' E 002°11'0 0.0
2017-Aug-14 08:54N 41°22' E 002°11'0 0.0
2017-Aug-14 08:24N 41°22' E 002°11'0 0.0
2017-Aug-14 08:00N 41°22' E 002°11'0 0.0
2017-Aug-14 07:30N 41°22' E 002°11'0 0.0
2017-Aug-14 07:00N 41°22' E 002°11'0 0.0
2017-Aug-14 06:30N 41°22' E 002°11'0 0.0
2017-Aug-14 05:48N 41°22' E 002°11'0 0.0
2017-Aug-14 05:24N 41°22' E 002°11'0 0.0
2017-Aug-14 04:54N 41°22' E 002°11'0 0.4
2017-Aug-14 04:30N 41°22' E 002°11'3 6.3
2017-Aug-14 03:58N 41°18' E 002°11'611.7
2017-Aug-14 03:30N 41°18' E 002°18'816.9
2017-Aug-14 03:00N 41°23' E 002°27'916.9
2017-Aug-14 02:30N 41°27' E 002°37'816.3
2017-Aug-14 02:00N 41°32' E 002°46'816.1
2017-Aug-14 01:30N 41°36' E 002°55'816.3
2017-Aug-14 01:00N 41°41' E 003°05'61205.2
2017-Aug-14 01:00N 41°36' E 003°00'1327.4 200 / 131024.027.0 29.020.426.0
2017-Aug-14 00:30N 41°45' E 003°13'815.6
2017-Aug-14 00:00N 41°49' E 003°22'8700.3
2017-Aug-14 00:00N 41°42' E 003°18'1429.3 190 / 41024.010.8 28.020.926.0
2017-Aug-13 23:30N 41°53' E 003°30'816.2
2017-Aug-13 23:00N 41°59' E 003°38'8521.1
2017-Aug-13 23:00N 41°54' E 003°30'1734.7 200 / 131021.027.0 29.020.426.0
2017-Aug-13 22:30N 42°05' E 003°47'917.7
2017-Aug-13 22:00N 42°12' E 003°55'917.3
2017-Aug-13 21:30N 42°18' E 004°03'917.5
2017-Aug-13 21:00N 42°25' E 004°11'151016.2
2017-Aug-13 21:00N 42°36' E 004°24'613.0 200 / 101018.010.8 24.019.618.0
2017-Aug-13 20:30N 42°31' E 004°19'917.6
2017-Aug-13 20:00N 42°37' E 004°27'15946.5
2017-Aug-13 20:00N 42°48' E 004°42'613.2 200 / 101018.010.8 24.019.6
2017-Aug-13 19:30N 42°44' E 004°36'917.2
2017-Aug-13 19:01N 42°50' E 004°44'917.0
2017-Aug-13 18:30N 42°56' E 004°52'917.1
2017-Aug-13 18:00N 43°02' E 004°59'917.4
2017-Aug-13 17:30N 43°09' E 005°07'817.0
2017-Aug-13 17:01N 43°17' E 005°11'713.0
2017-Aug-13 16:30N 43°21' E 005°18'2 3.1
2017-Aug-13 16:00N 43°21' E 005°20'0 0.0
2017-Aug-13 15:30N 43°21' E 005°20'0 0.0
2017-Aug-13 14:57N 43°21' E 005°20'0 0.0
2017-Aug-13 14:30N 43°21' E 005°20'0 0.0
2017-Aug-13 14:00N 43°21' E 005°20'0 0.0
2017-Aug-13 13:30N 43°21' E 005°20'0 0.0
2017-Aug-13 13:00N 43°21' E 005°20'0 0.0
2017-Aug-13 12:27N 43°21' E 005°20'0 0.0
2017-Aug-13 12:00N 43°21' E 005°20'0 0.0
2017-Aug-13 11:30N 43°21' E 005°20'0 0.0
2017-Aug-13 11:00N 43°21' E 005°20'0 0.0
2017-Aug-13 10:30N 43°21' E 005°20'0 0.0
2017-Aug-13 10:00N 43°21' E 005°20'0 0.0
2017-Aug-13 09:30N 43°21' E 005°20'0 0.0
2017-Aug-13 09:00N 43°21' E 005°20'0 0.0
2017-Aug-13 08:30N 43°21' E 005°20'0 0.0
2017-Aug-13 08:00N 43°21' E 005°20'0 0.0
2017-Aug-13 07:30N 43°21' E 005°20'0 0.0
2017-Aug-13 07:00N 43°21' E 005°20'0 0.0
2017-Aug-13 06:27N 43°21' E 005°20'0 0.0
2017-Aug-13 06:00N 43°21' E 005°20'0 0.0
2017-Aug-13 05:30N 43°21' E 005°20'1 1.3
2017-Aug-13 05:00N 43°21' E 005°19'5 9.4
2017-Aug-13 04:30N 43°18' E 005°14'611.5
2017-Aug-13 04:00N 43°13' E 005°11'8494.6
2017-Aug-13 04:00N 43°06' E 005°06'612.0 340 / 191022.010.8 19.2 18.0
2017-Aug-13 03:30N 43°07' E 005°14'613.1
2017-Aug-13 03:00N 43°01' E 005°18'5282.1
2017-Aug-13 03:00N 43°00' E 005°12'1019.9 330 / 241022.010.8 19.2 18.0
2017-Aug-13 02:30N 42°56' E 005°24'1112.1
2017-Aug-13 01:33N 42°52' E 005°39'111.7
2017-Aug-13 01:30N 42°52' E 005°39'611.6
2017-Aug-13 01:00N 42°50' E 005°47'611.3
2017-Aug-13 00:30N 42°48' E 005°54'916.6
2017-Aug-13 00:00N 42°48' E 006°06'2 6.2 270 / 191020.010.8 29.020.427.0
2017-Aug-12 23:41N 42°46' E 006°07'311.5
2017-Aug-12 23:25N 42°46' E 006°11'511.5
2017-Aug-12 23:00N 42°46' E 006°18'611.5
2017-Aug-12 22:30N 42°47' E 006°26'611.0
2017-Aug-12 21:56N 42°49' E 006°34'711.4
2017-Aug-12 21:21N 42°55' E 006°38'411.2
2017-Aug-12 21:00N 42°58' E 006°41'611.3
2017-Aug-12 20:30N 43°03' E 006°45'611.4
2017-Aug-12 19:59N 43°08' E 006°48'511.4
2017-Aug-12 19:30N 43°13' E 006°51'611.7
2017-Aug-12 19:00N 43°18' E 006°55'611.6
2017-Aug-12 18:30N 43°24' E 006°57'612.2
2017-Aug-12 18:00N 43°30' E 006°59'3 5.0
2017-Aug-12 17:28N 43°32' E 007°01'0 0.1
2017-Aug-12 16:58N 43°32' E 007°01'0 0.0
2017-Aug-12 16:28N 43°32' E 007°01'0 0.0
2017-Aug-12 15:58N 43°32' E 007°01'0 0.0
2017-Aug-12 15:28N 43°32' E 007°01'0 0.0
2017-Aug-12 14:52N 43°32' E 007°01'0 0.0
2017-Aug-12 14:25N 43°32' E 007°01'0 0.0
2017-Aug-12 13:58N 43°32' E 007°01'0 0.0
2017-Aug-12 13:28N 43°32' E 007°01'0 0.1
2017-Aug-12 12:58N 43°32' E 007°01'0 0.0
2017-Aug-12 12:28N 43°32' E 007°01'0 0.1
2017-Aug-12 11:58N 43°32' E 007°01'0 0.0
2017-Aug-12 11:28N 43°32' E 007°01'0 0.0
2017-Aug-12 10:58N 43°32' E 007°01'0 0.0
2017-Aug-12 10:28N 43°32' E 007°01'0 0.0
2017-Aug-12 09:58N 43°32' E 007°01'0 0.0
2017-Aug-12 09:28N 43°32' E 007°01'0 0.0
2017-Aug-12 08:55N 43°32' E 007°01'0 0.0
2017-Aug-12 08:28N 43°32' E 007°01'0 0.1
2017-Aug-12 07:58N 43°32' E 007°01'0 0.0
2017-Aug-12 07:28N 43°32' E 007°01'0 0.0
2017-Aug-12 06:58N 43°32' E 007°01'0 0.0
2017-Aug-12 06:28N 43°32' E 007°01'0 0.0
2017-Aug-12 05:58N 43°32' E 007°01'0 0.0
2017-Aug-12 05:28N 43°32' E 007°01'0 0.0
2017-Aug-12 04:58N 43°32' E 007°01'0 0.1
2017-Aug-12 04:30N 43°32' E 007°01'1 1.8
2017-Aug-12 04:00N 43°31' E 007°00'611.8
2017-Aug-12 03:31N 43°29' E 007°08'714.7
2017-Aug-12 03:00N 43°28' E 007°18'713.4
2017-Aug-12 02:29N 43°28' E 007°27'1913.5
2017-Aug-12 01:04N 43°32' E 007°53'460.3
2017-Aug-12 01:00N 43°30' E 007°48'2517.4 010 / 121020.027.0 28.020.927.0
2017-Aug-11 23:32N 43°38' E 008°21'113.8
2017-Aug-11 23:26N 43°39' E 008°23'614.2
2017-Aug-11 23:00N 43°41' E 008°31'714.3
2017-Aug-11 22:30N 43°42' E 008°40'714.1
2017-Aug-11 22:00N 43°44' E 008°50'714.1
2017-Aug-11 21:30N 43°46' E 008°59'713.8
2017-Aug-11 21:00N 43°48' E 009°08'713.4
2017-Aug-11 20:30N 43°51' E 009°17'713.1
2017-Aug-11 20:00N 43°53' E 009°26'5346.0
2017-Aug-11 20:00N 43°48' E 009°24'1121.9 220 / 151013.0 5.4 25.022.9
2017-Aug-11 19:30N 43°55' E 009°35'714.2
2017-Aug-11 19:00N 43°58' E 009°44'4791.3
2017-Aug-11 19:00N 43°54' E 009°42'1019.8 220 / 151013.0 5.4 25.022.9
2017-Aug-11 18:30N 44°00' E 009°52'611.1
2017-Aug-11 18:00N 44°06' E 009°50'0 0.9
2017-Aug-11 17:28N 44°06' E 009°50'0 0.0
2017-Aug-11 16:58N 44°06' E 009°50'0 0.0
2017-Aug-11 16:28N 44°06' E 009°50'0 0.0
2017-Aug-11 15:58N 44°06' E 009°50'0 0.0
2017-Aug-11 15:28N 44°06' E 009°50'0 0.0
2017-Aug-11 14:58N 44°06' E 009°50'0 0.0
2017-Aug-11 14:28N 44°06' E 009°50'0 0.0
2017-Aug-11 13:28N 44°06' E 009°50'0 0.0
2017-Aug-11 12:58N 44°06' E 009°50'0 0.0
2017-Aug-11 12:28N 44°06' E 009°50'0 0.0
2017-Aug-11 11:58N 44°06' E 009°50'0 0.0
2017-Aug-11 11:28N 44°06' E 009°50'0 0.0
2017-Aug-11 10:58N 44°06' E 009°50'0 0.0
2017-Aug-11 10:28N 44°06' E 009°50'0 0.0
2017-Aug-11 09:58N 44°06' E 009°50'0 0.0
2017-Aug-11 09:28N 44°06' E 009°50'0 0.0
2017-Aug-11 08:58N 44°06' E 009°50'0 0.0
2017-Aug-11 08:28N 44°06' E 009°50'0 0.0
2017-Aug-11 07:58N 44°06' E 009°50'0 0.0
2017-Aug-11 07:28N 44°06' E 009°50'0 0.0
2017-Aug-11 06:58N 44°06' E 009°50'0 0.0
2017-Aug-11 06:28N 44°06' E 009°50'0 0.0
2017-Aug-11 05:58N 44°06' E 009°50'0 0.0
2017-Aug-11 05:29N 44°06' E 009°50'0 0.0
2017-Aug-11 04:58N 44°06' E 009°50'0 0.1
2017-Aug-11 04:30N 44°06' E 009°50'3 6.5
2017-Aug-11 04:00N 44°03' E 009°52'612.3
2017-Aug-11 03:30N 43°58' E 009°56'714.4
2017-Aug-11 03:01N 43°51' E 009°52'714.2
2017-Aug-11 02:31N 43°45' E 009°48'713.5
2017-Aug-11 02:00N 43°39' E 009°45'714.2
2017-Aug-11 01:30N 43°32' E 009°44'815.0
2017-Aug-11 01:01N 43°24' E 009°44'178.8
2017-Aug-11 01:00N 43°24' E 009°42'816.2 260 / 291017.027.0 29.020.427.0
2017-Aug-11 00:30N 43°18' E 009°49'714.7
2017-Aug-11 00:00N 43°12' E 009°54'714.9
2017-Aug-10 23:30N 43°05' E 009°59'714.7
2017-Aug-10 23:00N 42°58' E 010°00'2136.4
2017-Aug-10 23:00N 43°00' E 010°00'919.5 270 / 441018.010.8 30.019.926.0
2017-Aug-10 22:31N 42°51' E 010°01'814.9
2017-Aug-10 22:00N 42°43' E 010°04'1216.5
2017-Aug-10 21:15N 42°35' E 010°16'521.6
2017-Aug-10 21:00N 42°30' E 010°12'832.9
2017-Aug-10 20:44N 42°28' E 010°23'2635.1
2017-Aug-10 20:00N 42°06' E 010°42'47 2.5 030 / 261013.0 5.4 27.025.6
2017-Aug-10 01:00N 41°42' E 011°36'1918.6 180 / 141021.0 5.4 27.019.727.0
2017-Aug-10 00:00N 41°24' E 011°42'1 3.8 120 / 231022.0 5.4 29.020.426.0
2017-Aug-09 23:42N 41°24' E 011°44'3613.3
2017-Aug-09 21:00N 40°48' E 011°42'1818.0 180 / 161016.0 5.4 28.027.329.0
2017-Aug-09 20:00N 40°30' E 011°42'8 8.2 180 / 161016.0 5.4 28.027.329.0
2017-Aug-09 19:02N 40°23' E 011°47'112.9
2017-Aug-09 18:57N 40°22' E 011°47'712.5
2017-Aug-09 18:26N 40°16' E 011°47'2215.0
2017-Aug-09 17:00N 39°54' E 011°48'3015.0 160 / 71022.0 5.4 29.0 29.0
2017-Aug-09 15:00N 39°24' E 011°48'6 6.0 190 / 111026.010.8 28.0
2017-Aug-09 14:00N 39°18' E 011°48'615.4 180 / 161022.010.8 30.019.927.0
2017-Aug-09 13:36N 39°12' E 011°51'711.2
2017-Aug-09 13:00N 39°06' E 011°54'1918.6 180 / 161022.010.8 30.019.927.0
2017-Aug-09 12:00N 38°48' E 011°48'1212.0 180 / 171023.010.8 30.021.527.0
2017-Aug-09 11:00N 38°36' E 011°48'1312.9 190 / 131023.010.8 30.019.926.0
2017-Aug-09 10:00N 38°24' E 011°54'1011.5 170 / 201014.0 2.2 31.031.029.0
2017-Aug-09 09:05N 38°14' E 011°55'113.5
2017-Aug-09 09:00N 38°13' E 011°55'191191.5
2017-Aug-09 09:00N 37°54' E 011°54'1224.4 170 / 161014.0 2.2 31.031.0
2017-Aug-09 08:30N 38°06' E 011°55'913.1
2017-Aug-09 07:48N 37°57' E 011°56'412.7
2017-Aug-09 07:30N 37°53' E 011°58'612.3
2017-Aug-09 07:00N 37°49' E 012°04'612.9
2017-Aug-09 06:30N 37°45' E 012°10'713.4
2017-Aug-09 06:00N 37°40' E 012°16'612.9
2017-Aug-09 05:30N 37°36' E 012°22'613.0
2017-Aug-09 05:00N 37°32' E 012°29'713.1
2017-Aug-09 04:30N 37°28' E 012°35'713.1
2017-Aug-09 04:00N 37°24' E 012°41'6435.4
2017-Aug-09 04:00N 37°18' E 012°42'5 9.3 130 / 121022.0 5.4 26.9 27.0
2017-Aug-09 03:30N 37°19' E 012°48'613.1
2017-Aug-09 03:00N 37°15' E 012°53'3277.3
2017-Aug-09 03:00N 37°12' E 012°54'4 9.2 1022.010.8 27.0 28.0
2017-Aug-09 02:30N 37°10' E 012°59'612.9
2017-Aug-09 02:00N 37°06' E 013°05'4250.5
2017-Aug-09 02:00N 37°06' E 013°00'1019.9 120 / 51022.0 2.2 29.020.427.0
2017-Aug-09 01:30N 37°01' E 013°11'612.7
2017-Aug-09 01:00N 36°57' E 013°16'5364.7
2017-Aug-09 01:00N 37°00' E 013°12'1122.8 010 / 1101023.010.8 29.022.027.0
2017-Aug-09 00:30N 36°52' E 013°22'713.0
2017-Aug-09 00:00N 36°48' E 013°28'2128.6
2017-Aug-09 00:00N 36°48' E 013°30'511.3 010 / 1101023.010.8 29.022.027.0
2017-Aug-08 23:30N 36°43' E 013°34'712.9
2017-Aug-08 23:00N 36°39' E 013°39'4398.4
2017-Aug-08 23:00N 36°36' E 013°36'815.6 010 / 1101023.010.8 29.022.027.0
2017-Aug-08 22:30N 36°34' E 013°45'612.8
2017-Aug-08 22:00N 36°30' E 013°51'612.9
2017-Aug-08 21:30N 36°26' E 013°57'713.0
2017-Aug-08 21:00N 36°21' E 014°03'612.9
2017-Aug-08 20:30N 36°17' E 014°09'612.5
2017-Aug-08 20:00N 36°12' E 014°14'612.5
2017-Aug-08 19:30N 36°08' E 014°19'612.8
2017-Aug-08 19:00N 36°03' E 014°24'612.8
2017-Aug-08 18:30N 35°58' E 014°30'4 8.9
2017-Aug-08 18:00N 35°54' E 014°31'1 1.0
2017-Aug-08 17:28N 35°53' E 014°31'0 0.0
2017-Aug-08 16:55N 35°53' E 014°31'0 0.0
2017-Aug-08 16:28N 35°53' E 014°31'0 0.0
2017-Aug-08 15:58N 35°53' E 014°31'0 0.0
2017-Aug-08 15:28N 35°53' E 014°31'0 0.0
2017-Aug-08 14:58N 35°53' E 014°31'0 0.0
2017-Aug-08 14:25N 35°53' E 014°31'0 0.0
2017-Aug-08 13:58N 35°53' E 014°31'0 0.0
2017-Aug-08 13:25N 35°53' E 014°31'0 0.0
2017-Aug-08 12:28N 35°53' E 014°31'0 0.0
2017-Aug-08 11:52N 35°53' E 014°31'0 0.0
2017-Aug-08 11:19N 35°53' E 014°31'0 0.0
2017-Aug-08 10:58N 35°53' E 014°31'0 0.3
2017-Aug-08 10:30N 35°53' E 014°31'3 6.8
2017-Aug-08 10:00N 35°55' E 014°34'1020.4
2017-Aug-08 09:30N 35°60' E 014°45'1121.3
2017-Aug-08 09:00N 36°03' E 014°58'2821.5
2017-Aug-08 07:41N 36°11' E 015°31'  

Dump ship's entire track history